createdAt,value
2022-12-11T00:00:54.511Z,90.30
2022-12-11T00:01:54.507Z,90.25
2022-12-11T00:02:54.482Z,90.25
2022-12-11T00:03:54.431Z,90.08
2022-12-11T00:04:54.409Z,90.25
2022-12-11T00:05:54.408Z,90.25
2022-12-11T00:06:54.376Z,90.15
2022-12-11T00:07:54.428Z,90.25
2022-12-11T00:08:54.390Z,90.15
2022-12-11T00:09:54.365Z,90.15
2022-12-11T00:10:54.386Z,90.58
2022-12-11T00:11:54.315Z,90.36
2022-12-11T00:12:54.326Z,90.36
2022-12-11T00:13:54.322Z,90.47
2022-12-11T00:14:54.325Z,90.68
2022-12-11T00:15:54.281Z,90.36
2022-12-11T00:16:54.286Z,90.25
2022-12-11T00:17:54.268Z,90.36
2022-12-11T00:18:54.275Z,90.68
2022-12-11T00:19:54.273Z,90.79
2022-12-11T00:20:54.274Z,90.58
2022-12-11T00:21:54.272Z,90.15
2022-12-11T00:22:54.215Z,90.68
2022-12-11T00:23:54.238Z,90.04
2022-12-11T00:24:54.198Z,89.93
2022-12-11T00:25:54.169Z,90.36
2022-12-11T00:26:54.180Z,90.58
2022-12-11T00:27:54.185Z,90.68
2022-12-11T00:28:54.153Z,90.58
2022-12-11T00:29:54.159Z,90.36
2022-12-11T00:30:54.128Z,90.47
2022-12-11T00:31:54.167Z,90.04
2022-12-11T00:32:54.150Z,90.04
2022-12-11T00:33:54.105Z,90.15
2022-12-11T00:34:54.090Z,90.47
2022-12-11T00:35:54.107Z,90.47
2022-12-11T00:36:54.069Z,90.15
2022-12-11T00:37:54.076Z,90.47
2022-12-11T00:38:54.100Z,90.58
2022-12-11T00:39:54.027Z,90.90
2022-12-11T00:40:54.028Z,90.15
2022-12-11T00:41:54.058Z,90.15
2022-12-11T00:42:54.025Z,90.58
2022-12-11T00:43:54.019Z,90.36
2022-12-11T00:44:53.980Z,90.25
2022-12-11T00:45:54.015Z,90.36
2022-12-11T00:46:54.893Z,90.47
2022-12-11T00:47:53.960Z,90.79
2022-12-11T00:48:53.942Z,90.68
2022-12-11T00:49:53.975Z,90.25
2022-12-11T00:50:53.923Z,90.47
2022-12-11T00:51:53.922Z,90.47
2022-12-11T00:52:53.901Z,90.15
2022-12-11T00:53:53.885Z,90.25
2022-12-11T00:54:53.902Z,90.68
2022-12-11T00:55:53.861Z,90.47
2022-12-11T00:56:53.900Z,90.36
2022-12-11T00:57:53.849Z,90.58
2022-12-11T00:58:53.839Z,90.68
2022-12-11T00:59:53.835Z,90.58
2022-12-11T01:00:53.861Z,90.90
2022-12-11T01:01:53.797Z,91.11
2022-12-11T01:02:53.845Z,90.79
2022-12-11T01:03:53.792Z,91.00
2022-12-11T01:04:53.760Z,91.00
2022-12-11T01:05:53.812Z,90.68
2022-12-11T01:06:53.747Z,90.58
2022-12-11T01:07:53.819Z,90.79
2022-12-11T01:08:53.734Z,91.22
2022-12-11T01:09:53.738Z,91.33
2022-12-11T01:10:53.734Z,91.28
2022-12-11T01:11:53.743Z,90.96
2022-12-11T01:12:53.757Z,91.18
2022-12-11T01:13:53.668Z,91.18
2022-12-11T01:14:53.698Z,91.07
2022-12-11T01:15:53.675Z,91.00
2022-12-11T01:16:53.707Z,90.86
2022-12-11T01:17:53.650Z,91.00
2022-12-11T01:18:53.624Z,91.00
2022-12-11T01:19:53.594Z,91.07
2022-12-11T01:20:53.594Z,90.90
2022-12-11T01:21:53.622Z,90.90
2022-12-11T01:22:53.578Z,91.22
2022-12-11T01:23:53.577Z,91.11
2022-12-11T01:24:53.548Z,90.79
2022-12-11T01:25:53.545Z,90.90
2022-12-11T01:26:53.544Z,91.11
2022-12-11T01:27:53.548Z,91.43
2022-12-11T01:28:53.526Z,91.11
2022-12-11T01:29:53.500Z,91.11
2022-12-11T01:30:53.560Z,91.28
2022-12-11T01:31:53.485Z,91.28
2022-12-11T01:32:53.491Z,91.28
2022-12-11T01:33:53.463Z,90.86
2022-12-11T01:34:53.484Z,90.96
2022-12-11T01:35:54.405Z,91.18
2022-12-11T01:36:53.440Z,91.18
2022-12-11T01:37:53.419Z,91.28
2022-12-11T01:38:53.413Z,91.39
2022-12-11T01:39:53.402Z,91.39
2022-12-11T01:40:53.397Z,91.28
2022-12-11T01:41:53.396Z,91.28
2022-12-11T01:42:53.361Z,91.18
2022-12-11T01:43:53.364Z,91.28
2022-12-11T01:44:53.353Z,90.86
2022-12-11T01:45:53.355Z,91.07
2022-12-11T01:46:53.342Z,91.39
2022-12-11T01:47:53.318Z,91.61
2022-12-11T01:48:53.333Z,91.61
2022-12-11T01:49:53.279Z,91.71
2022-12-11T01:50:53.306Z,91.61
2022-12-11T01:51:53.293Z,91.28
2022-12-11T01:52:53.262Z,91.39
2022-12-11T01:53:53.248Z,92.03
2022-12-11T01:54:53.277Z,92.03
2022-12-11T01:55:53.238Z,91.78
2022-12-11T01:56:53.209Z,91.67
2022-12-11T01:57:53.209Z,91.56
2022-12-11T01:58:53.218Z,91.78
2022-12-11T01:59:53.238Z,91.56
2022-12-11T02:00:53.288Z,91.46
2022-12-11T02:01:53.781Z,91.46
2022-12-11T02:02:53.215Z,91.67
2022-12-11T02:03:53.137Z,91.67
2022-12-11T02:04:53.158Z,91.46
2022-12-11T02:05:53.123Z,91.24
2022-12-11T02:06:53.138Z,91.46
2022-12-11T02:07:53.221Z,91.35
2022-12-11T02:08:53.091Z,91.24
2022-12-11T02:09:53.120Z,91.35
2022-12-11T02:10:53.072Z,91.14
2022-12-11T02:11:53.082Z,91.24
2022-12-11T02:12:53.038Z,91.35
2022-12-11T02:13:53.050Z,91.35
2022-12-11T02:14:53.020Z,91.24
2022-12-11T02:15:53.038Z,91.24
2022-12-11T02:16:53.029Z,91.14
2022-12-11T02:17:53.005Z,91.35
2022-12-11T02:18:52.976Z,91.46
2022-12-11T02:19:52.987Z,91.42
2022-12-11T02:20:52.977Z,91.42
2022-12-11T02:21:52.966Z,91.31
2022-12-11T02:22:52.926Z,91.63
2022-12-11T02:23:52.939Z,91.31
2022-12-11T02:24:52.941Z,91.42
2022-12-11T02:25:52.967Z,91.20
2022-12-11T02:26:52.887Z,91.31
2022-12-11T02:27:52.887Z,91.42
2022-12-11T02:28:52.880Z,91.74
2022-12-11T02:29:52.871Z,91.74
2022-12-11T02:30:52.862Z,91.63
2022-12-11T02:31:52.921Z,91.52
2022-12-11T02:32:52.854Z,91.85
2022-12-11T02:33:52.841Z,91.96
2022-12-11T02:34:52.854Z,92.06
2022-12-11T02:35:52.810Z,91.85
2022-12-11T02:36:52.783Z,91.74
2022-12-11T02:37:52.806Z,91.42
2022-12-11T02:38:52.783Z,91.31
2022-12-11T02:39:52.805Z,91.52
2022-12-11T02:40:52.753Z,91.52
2022-12-11T02:41:52.749Z,91.63
2022-12-11T02:42:52.735Z,91.63
2022-12-11T02:43:52.723Z,91.52
2022-12-11T02:44:52.719Z,91.63
2022-12-11T02:45:52.813Z,91.52
2022-12-11T02:46:52.688Z,91.42
2022-12-11T02:47:52.685Z,91.52
2022-12-11T02:48:52.666Z,91.70
2022-12-11T02:49:52.684Z,91.63
2022-12-11T02:50:52.689Z,91.59
2022-12-11T02:51:52.645Z,91.49
2022-12-11T02:52:52.625Z,91.49
2022-12-11T02:53:52.621Z,91.49
2022-12-11T02:54:52.644Z,91.49
2022-12-11T02:55:52.609Z,91.38
2022-12-11T02:56:52.583Z,91.27
2022-12-11T02:57:52.557Z,91.27
2022-12-11T02:58:58.190Z,91.16
2022-12-11T02:59:52.569Z,91.59
2022-12-11T03:00:52.551Z,91.59
2022-12-11T03:01:52.538Z,91.27
2022-12-11T03:02:52.548Z,91.38
2022-12-11T03:03:52.505Z,91.70
2022-12-11T03:04:52.523Z,91.49
2022-12-11T03:05:52.482Z,91.49
2022-12-11T03:06:52.490Z,91.38
2022-12-11T03:07:52.597Z,91.38
2022-12-11T03:08:52.448Z,91.49
2022-12-11T03:09:52.469Z,91.59
2022-12-11T03:10:52.454Z,91.59
2022-12-11T03:11:52.437Z,91.49
2022-12-11T03:12:53.833Z,91.70
2022-12-11T03:13:52.403Z,91.49
2022-12-11T03:14:52.421Z,91.59
2022-12-11T03:15:52.401Z,91.49
2022-12-11T03:16:53.323Z,91.38
2022-12-11T03:17:52.367Z,91.27
2022-12-11T03:18:52.338Z,91.49
2022-12-11T03:19:52.360Z,91.27
2022-12-11T03:20:52.329Z,91.38
2022-12-11T03:21:52.318Z,91.49
2022-12-11T03:22:52.317Z,91.59
2022-12-11T03:23:53.784Z,91.70
2022-12-11T03:24:52.321Z,91.77
2022-12-11T03:25:52.257Z,91.44
2022-12-11T03:26:56.272Z,91.66
2022-12-11T03:27:52.576Z,91.66
2022-12-11T03:28:52.245Z,91.77
2022-12-11T03:29:52.235Z,91.66
2022-12-11T03:30:52.304Z,91.55
2022-12-11T03:31:52.230Z,91.44
2022-12-11T03:32:52.198Z,91.12
2022-12-11T03:33:52.205Z,91.44
2022-12-11T03:34:56.955Z,91.23
2022-12-11T03:35:52.166Z,91.34
2022-12-11T03:36:52.167Z,91.44
2022-12-11T03:37:52.148Z,91.12
2022-12-11T03:38:52.138Z,91.02
2022-12-11T03:39:52.134Z,90.91
2022-12-11T03:40:52.146Z,91.02
2022-12-11T03:41:52.138Z,91.12
2022-12-11T03:42:52.493Z,91.12
2022-12-11T03:43:52.120Z,91.02
2022-12-11T03:44:52.091Z,91.02
2022-12-11T03:45:52.134Z,91.12
2022-12-11T03:46:52.043Z,91.23
2022-12-11T03:47:52.122Z,91.12
2022-12-11T03:48:52.069Z,90.91
2022-12-11T03:49:52.014Z,90.84
2022-12-11T03:50:52.015Z,90.95
2022-12-11T03:51:52.024Z,90.84
2022-12-11T03:52:52.000Z,90.95
2022-12-11T03:53:52.002Z,91.06
2022-12-11T03:54:51.984Z,91.16
2022-12-11T03:55:51.964Z,91.16
2022-12-11T03:56:51.947Z,91.49
2022-12-11T03:57:51.945Z,91.70
2022-12-11T03:58:51.929Z,91.70
2022-12-11T03:59:51.945Z,91.80
2022-12-11T04:00:51.901Z,91.91
2022-12-11T04:01:51.939Z,91.91
2022-12-11T04:02:51.891Z,92.02
2022-12-11T04:03:51.896Z,91.98
2022-12-11T04:04:51.865Z,91.70
2022-12-11T04:05:51.871Z,91.91
2022-12-11T04:06:51.836Z,92.19
2022-12-11T04:07:51.887Z,91.98
2022-12-11T04:08:51.815Z,91.98
2022-12-11T04:09:51.825Z,92.08
2022-12-11T04:10:51.807Z,92.08
2022-12-11T04:11:51.815Z,91.87
2022-12-11T04:12:51.785Z,91.66
2022-12-11T04:13:51.810Z,91.87
2022-12-11T04:14:51.758Z,92.08
2022-12-11T04:15:51.833Z,91.98
2022-12-11T04:16:51.737Z,91.98
2022-12-11T04:17:51.727Z,91.87
2022-12-11T04:18:51.718Z,92.19
2022-12-11T04:19:51.732Z,92.19
2022-12-11T04:20:51.675Z,92.19
2022-12-11T04:21:51.684Z,92.08
2022-12-11T04:22:51.677Z,92.41
2022-12-11T04:23:51.667Z,92.41
2022-12-11T04:24:51.675Z,92.51
2022-12-11T04:25:51.672Z,92.51
2022-12-11T04:26:51.633Z,92.51
2022-12-11T04:27:51.618Z,92.51
2022-12-11T04:28:51.591Z,92.51
2022-12-11T04:29:51.603Z,92.41
2022-12-11T04:30:51.701Z,92.41
2022-12-11T04:31:51.590Z,92.08
2022-12-11T04:32:51.576Z,92.30
2022-12-11T04:33:51.591Z,92.51
2022-12-11T04:34:51.571Z,92.51
2022-12-11T04:35:51.532Z,92.62
2022-12-11T04:36:51.529Z,92.62
2022-12-11T04:37:51.503Z,92.51
2022-12-11T04:38:51.506Z,92.41
2022-12-11T04:39:51.495Z,92.51
2022-12-11T04:40:51.497Z,92.51
2022-12-11T04:41:51.460Z,92.51
2022-12-11T04:42:51.458Z,92.51
2022-12-11T04:43:51.474Z,92.41
2022-12-11T04:44:51.432Z,92.41
2022-12-11T04:45:51.425Z,92.41
2022-12-11T04:46:51.537Z,92.30
2022-12-11T04:47:51.398Z,92.30
2022-12-11T04:48:57.080Z,92.19
2022-12-11T04:49:51.383Z,92.19
2022-12-11T04:50:51.382Z,92.19
2022-12-11T04:51:51.384Z,92.30
2022-12-11T04:52:51.390Z,92.19
2022-12-11T04:53:51.345Z,92.19
2022-12-11T04:54:51.350Z,92.30
2022-12-11T04:55:51.328Z,92.08
2022-12-11T04:56:51.319Z,92.19
2022-12-11T04:57:51.313Z,92.19
2022-12-11T04:58:51.300Z,92.30
2022-12-11T04:59:51.265Z,92.30
2022-12-11T05:00:51.344Z,92.41
2022-12-11T05:01:51.315Z,92.41
2022-12-11T05:02:51.304Z,92.51
2022-12-11T05:03:51.249Z,92.51
2022-12-11T05:04:51.231Z,92.36
2022-12-11T05:05:51.213Z,92.25
2022-12-11T05:06:51.223Z,92.15
2022-12-11T05:07:51.234Z,92.47
2022-12-11T05:08:51.211Z,92.36
2022-12-11T05:09:51.170Z,92.36
2022-12-11T05:10:51.175Z,92.15
2022-12-11T05:11:51.174Z,92.04
2022-12-11T05:12:51.141Z,92.04
2022-12-11T05:13:51.137Z,91.83
2022-12-11T05:14:51.119Z,91.94
2022-12-11T05:15:51.194Z,91.94
2022-12-11T05:16:51.124Z,92.04
2022-12-11T05:17:51.110Z,92.15
2022-12-11T05:18:51.101Z,91.83
2022-12-11T05:19:51.082Z,91.94
2022-12-11T05:20:51.085Z,92.04
2022-12-11T05:21:51.063Z,92.15
2022-12-11T05:22:51.041Z,92.15
2022-12-11T05:23:51.105Z,92.15
2022-12-11T05:24:51.012Z,92.25
2022-12-11T05:25:51.029Z,92.15
2022-12-11T05:26:50.993Z,92.25
2022-12-11T05:27:50.989Z,92.36
2022-12-11T05:28:50.968Z,92.36
2022-12-11T05:29:54.856Z,92.36
2022-12-11T05:30:50.991Z,92.47
2022-12-11T05:31:50.953Z,92.47
2022-12-11T05:32:50.938Z,92.47
2022-12-11T05:33:50.926Z,92.47
2022-12-11T05:34:50.931Z,92.58
2022-12-11T05:35:50.899Z,92.69
2022-12-11T05:36:50.888Z,92.79
2022-12-11T05:37:50.874Z,93.01
2022-12-11T05:38:50.894Z,93.12
2022-12-11T05:39:50.867Z,93.01
2022-12-11T05:40:50.843Z,92.69
2022-12-11T05:41:50.834Z,92.69
2022-12-11T05:42:50.853Z,92.79
2022-12-11T05:43:50.813Z,92.90
2022-12-11T05:44:50.795Z,92.69
2022-12-11T05:45:50.808Z,92.79
2022-12-11T05:46:50.818Z,92.90
2022-12-11T05:47:50.770Z,92.69
2022-12-11T05:48:50.796Z,92.79
2022-12-11T05:49:50.774Z,92.90
2022-12-11T05:50:50.737Z,92.90
2022-12-11T05:51:50.738Z,92.79
2022-12-11T05:52:50.724Z,92.90
2022-12-11T05:53:50.708Z,92.79
2022-12-11T05:54:50.708Z,92.90
2022-12-11T05:55:50.677Z,92.79
2022-12-11T05:56:50.705Z,92.90
2022-12-11T05:57:50.687Z,92.75
2022-12-11T05:58:50.671Z,92.65
2022-12-11T05:59:50.643Z,92.54
2022-12-11T06:00:50.636Z,92.65
2022-12-11T06:01:50.757Z,92.65
2022-12-11T06:02:50.700Z,92.65
2022-12-11T06:03:50.602Z,92.86
2022-12-11T06:04:50.591Z,92.75
2022-12-11T06:05:50.583Z,92.86
2022-12-11T06:06:50.591Z,92.75
2022-12-11T06:07:50.581Z,92.54
2022-12-11T06:08:50.547Z,92.65
2022-12-11T06:09:50.550Z,92.96
2022-12-11T06:10:50.525Z,92.86
2022-12-11T06:11:50.562Z,92.65
2022-12-11T06:12:50.530Z,92.54
2022-12-11T06:13:50.492Z,92.65
2022-12-11T06:14:50.478Z,92.43
2022-12-11T06:15:50.463Z,92.54
2022-12-11T06:16:50.538Z,92.43
2022-12-11T06:17:50.478Z,92.32
2022-12-11T06:18:50.429Z,92.32
2022-12-11T06:19:50.444Z,92.43
2022-12-11T06:20:50.422Z,92.54
2022-12-11T06:21:50.433Z,92.71
2022-12-11T06:22:50.417Z,92.71
2022-12-11T06:23:50.406Z,92.60
2022-12-11T06:24:50.386Z,92.60
2022-12-11T06:25:50.354Z,92.71
2022-12-11T06:26:50.383Z,92.50
2022-12-11T06:27:50.343Z,92.60
2022-12-11T06:28:50.354Z,92.71
2022-12-11T06:29:50.324Z,92.71
2022-12-11T06:30:50.340Z,92.82
2022-12-11T06:31:50.387Z,93.03
2022-12-11T06:32:50.293Z,93.14
2022-12-11T06:33:50.276Z,93.24
2022-12-11T06:34:50.269Z,93.35
2022-12-11T06:35:50.258Z,93.35
2022-12-11T06:36:50.279Z,93.03
2022-12-11T06:37:50.257Z,93.24
2022-12-11T06:38:50.224Z,93.46
2022-12-11T06:39:50.225Z,93.14
2022-12-11T06:40:50.249Z,93.03
2022-12-11T06:41:50.194Z,93.03
2022-12-11T06:42:50.178Z,93.14
2022-12-11T06:43:50.267Z,93.24
2022-12-11T06:44:50.174Z,93.14
2022-12-11T06:45:50.208Z,93.35
2022-12-11T06:46:50.203Z,93.31
2022-12-11T06:47:50.130Z,93.24
2022-12-11T06:48:50.131Z,93.35
2022-12-11T06:49:50.140Z,93.46
2022-12-11T06:50:50.098Z,93.52
2022-12-11T06:51:50.080Z,93.78
2022-12-11T06:52:50.109Z,93.95
2022-12-11T06:53:50.074Z,93.84
2022-12-11T06:54:50.064Z,93.63
2022-12-11T06:55:50.085Z,93.52
2022-12-11T06:56:50.071Z,93.41
2022-12-11T06:57:50.028Z,93.52
2022-12-11T06:58:50.164Z,93.74
2022-12-11T06:59:49.999Z,93.41
2022-12-11T07:00:50.053Z,93.31
2022-12-11T07:01:50.040Z,93.31
2022-12-11T07:02:49.987Z,93.31
2022-12-11T07:03:49.967Z,92.99
2022-12-11T07:04:54.935Z,93.20
2022-12-11T07:05:49.973Z,93.41
2022-12-11T07:06:49.927Z,93.31
2022-12-11T07:07:49.981Z,93.31
2022-12-11T07:08:49.919Z,93.31
2022-12-11T07:09:49.908Z,93.41
2022-12-11T07:10:49.914Z,92.88
2022-12-11T07:11:49.885Z,92.88
2022-12-11T07:12:49.877Z,92.88
2022-12-11T07:13:49.864Z,92.88
2022-12-11T07:14:49.854Z,92.77
2022-12-11T07:15:49.861Z,92.50
2022-12-11T07:16:49.911Z,92.50
2022-12-11T07:17:49.835Z,92.88
2022-12-11T07:18:49.831Z,92.77
2022-12-11T07:19:49.821Z,92.71
2022-12-11T07:20:49.788Z,92.88
2022-12-11T07:21:49.768Z,92.93
2022-12-11T07:22:49.769Z,92.93
2022-12-11T07:23:49.745Z,93.24
2022-12-11T07:24:49.745Z,93.31
2022-12-11T07:25:49.752Z,93.31
2022-12-11T07:26:49.740Z,93.31
2022-12-11T07:27:49.711Z,93.10
2022-12-11T07:28:49.707Z,93.10
2022-12-11T07:29:49.704Z,92.99
2022-12-11T07:30:49.686Z,92.99
2022-12-11T07:31:49.705Z,92.99
2022-12-11T07:32:49.719Z,92.77
2022-12-11T07:33:49.643Z,92.82
2022-12-11T07:34:52.000Z,92.71
2022-12-11T07:35:49.639Z,92.93
2022-12-11T07:36:49.619Z,92.82
2022-12-11T07:37:49.598Z,92.93
2022-12-11T07:38:49.612Z,93.14
2022-12-11T07:39:49.606Z,93.35
2022-12-11T07:40:49.592Z,93.46
2022-12-11T07:41:49.562Z,93.46
2022-12-11T07:42:49.574Z,93.46
2022-12-11T07:43:49.546Z,93.46
2022-12-11T07:44:49.543Z,93.57
2022-12-11T07:45:49.565Z,93.46
2022-12-11T07:46:49.510Z,93.46
2022-12-11T07:47:49.495Z,93.41
2022-12-11T07:48:49.495Z,93.52
2022-12-11T07:49:49.482Z,93.41
2022-12-11T07:50:49.478Z,93.31
2022-12-11T07:51:49.439Z,93.31
2022-12-11T07:52:49.476Z,93.20
2022-12-11T07:53:49.432Z,93.24
2022-12-11T07:54:49.415Z,93.24
2022-12-11T07:55:49.436Z,93.03
2022-12-11T07:56:53.511Z,93.14
2022-12-11T07:57:49.412Z,93.14
2022-12-11T07:58:49.382Z,93.14
2022-12-11T07:59:49.359Z,93.24
2022-12-11T08:00:49.431Z,93.35
2022-12-11T08:01:49.344Z,93.46
2022-12-11T08:02:49.449Z,93.46
2022-12-11T08:03:49.342Z,93.67
2022-12-11T08:04:49.338Z,93.67
2022-12-11T08:05:49.320Z,93.67
2022-12-11T08:06:49.298Z,93.67
2022-12-11T08:07:49.378Z,93.63
2022-12-11T08:08:49.299Z,93.52
2022-12-11T08:09:49.277Z,93.52
2022-12-11T08:10:49.323Z,93.52
2022-12-11T08:11:49.239Z,93.52
2022-12-11T08:12:49.238Z,93.52
2022-12-11T08:13:49.255Z,93.52
2022-12-11T08:14:49.218Z,93.63
2022-12-11T08:15:49.199Z,93.63
2022-12-11T08:16:49.246Z,93.41
2022-12-11T08:17:49.180Z,93.31
2022-12-11T08:18:49.177Z,93.52
2022-12-11T08:19:49.155Z,93.52
2022-12-11T08:20:49.154Z,93.52
2022-12-11T08:21:49.288Z,93.74
2022-12-11T08:22:49.129Z,93.91
2022-12-11T08:23:49.116Z,93.59
2022-12-11T08:24:49.112Z,93.31
2022-12-11T08:25:49.101Z,93.20
2022-12-11T08:26:49.075Z,93.20
2022-12-11T08:27:49.109Z,93.16
2022-12-11T08:28:49.084Z,93.27
2022-12-11T08:29:49.085Z,93.27
2022-12-11T08:30:49.076Z,93.27
2022-12-11T08:31:49.036Z,93.27
2022-12-11T08:32:49.027Z,93.27
2022-12-11T08:33:49.039Z,93.16
2022-12-11T08:34:49.003Z,92.73
2022-12-11T08:35:48.980Z,92.88
2022-12-11T08:36:48.981Z,92.77
2022-12-11T08:37:48.971Z,92.77
2022-12-11T08:38:48.993Z,92.77
2022-12-11T08:39:48.942Z,92.67
2022-12-11T08:40:48.942Z,92.67
2022-12-11T08:41:48.946Z,92.67
2022-12-11T08:42:48.930Z,92.67
2022-12-11T08:43:48.900Z,92.67
2022-12-11T08:44:48.976Z,92.77
2022-12-11T08:45:48.927Z,92.88
2022-12-11T08:46:48.901Z,92.88
2022-12-11T08:47:48.871Z,92.99
2022-12-11T08:48:48.864Z,92.88
2022-12-11T08:49:48.844Z,92.77
2022-12-11T08:50:48.820Z,92.56
2022-12-11T08:51:48.852Z,92.56
2022-12-11T08:52:48.841Z,92.35
2022-12-11T08:53:48.801Z,92.35
2022-12-11T08:54:48.785Z,92.24
2022-12-11T08:55:48.818Z,92.18
2022-12-11T08:56:52.300Z,92.35
2022-12-11T08:57:48.769Z,92.24
2022-12-11T08:58:48.755Z,92.03
2022-12-11T08:59:48.739Z,92.18
2022-12-11T09:00:48.746Z,92.39
2022-12-11T09:01:48.725Z,92.29
2022-12-11T09:02:48.734Z,92.39
2022-12-11T09:03:48.684Z,92.50
2022-12-11T09:04:48.684Z,92.50
2022-12-11T09:05:48.669Z,92.50
2022-12-11T09:06:48.698Z,92.50
2022-12-11T09:07:48.733Z,92.60
2022-12-11T09:08:52.168Z,92.60
2022-12-11T09:09:48.641Z,92.50
2022-12-11T09:10:48.628Z,92.50
2022-12-11T09:11:48.597Z,92.39
2022-12-11T09:12:48.626Z,92.50
2022-12-11T09:13:48.595Z,92.71
2022-12-11T09:14:48.575Z,92.82
2022-12-11T09:15:48.630Z,92.82
2022-12-11T09:16:48.556Z,92.93
2022-12-11T09:17:48.560Z,93.03
2022-12-11T09:18:48.564Z,93.14
2022-12-11T09:19:48.543Z,92.99
2022-12-11T09:20:48.579Z,92.99
2022-12-11T09:21:48.617Z,92.88
2022-12-11T09:22:48.496Z,92.99
2022-12-11T09:23:48.489Z,93.10
2022-12-11T09:24:48.471Z,93.10
2022-12-11T09:25:48.445Z,93.20
2022-12-11T09:26:48.450Z,93.10
2022-12-11T09:27:48.461Z,92.88
2022-12-11T09:28:48.435Z,92.88
2022-12-11T09:29:48.412Z,92.88
2022-12-11T09:30:48.467Z,92.88
2022-12-11T09:31:48.398Z,92.73
2022-12-11T09:32:48.441Z,92.63
2022-12-11T09:33:48.368Z,92.63
2022-12-11T09:34:48.433Z,92.63
2022-12-11T09:35:48.363Z,92.41
2022-12-11T09:36:48.369Z,92.41
2022-12-11T09:37:48.329Z,92.30
2022-12-11T09:38:48.343Z,92.20
2022-12-11T09:39:48.311Z,92.10
2022-12-11T09:40:48.331Z,92.20
2022-12-11T09:41:48.314Z,92.05
2022-12-11T09:42:48.279Z,91.94
2022-12-11T09:43:48.265Z,91.94
2022-12-11T09:44:48.264Z,92.05
2022-12-11T09:45:48.274Z,91.94
2022-12-11T09:46:48.304Z,92.05
2022-12-11T09:47:48.259Z,91.94
2022-12-11T09:48:48.211Z,91.94
2022-12-11T09:49:48.235Z,91.94
2022-12-11T09:50:48.181Z,92.16
2022-12-11T09:51:48.171Z,92.27
2022-12-11T09:52:48.181Z,92.05
2022-12-11T09:53:48.175Z,92.37
2022-12-11T09:54:48.170Z,92.48
2022-12-11T09:55:48.142Z,92.27
2022-12-11T09:56:48.136Z,92.27
2022-12-11T09:57:48.132Z,92.58
2022-12-11T09:58:48.107Z,92.69
2022-12-11T09:59:48.110Z,92.37
2022-12-11T10:00:48.077Z,92.27
2022-12-11T10:01:48.137Z,92.48
2022-12-11T10:02:48.182Z,92.58
2022-12-11T10:03:48.038Z,92.69
2022-12-11T10:04:48.052Z,92.37
2022-12-11T10:05:48.046Z,92.37
2022-12-11T10:06:48.020Z,92.58
2022-12-11T10:07:48.040Z,93.01
2022-12-11T10:08:48.021Z,93.01
2022-12-11T10:09:48.028Z,92.69
2022-12-11T10:10:48.005Z,92.58
2022-12-11T10:11:54.470Z,92.69
2022-12-11T10:12:47.976Z,92.69
2022-12-11T10:13:47.950Z,92.80
2022-12-11T10:14:47.985Z,93.01
2022-12-11T10:15:48.029Z,92.80
2022-12-11T10:16:47.913Z,92.80
2022-12-11T10:17:47.905Z,92.91
2022-12-11T10:18:47.897Z,92.91
2022-12-11T10:19:47.890Z,93.44
2022-12-11T10:20:47.900Z,93.65
2022-12-11T10:21:47.879Z,93.76
2022-12-11T10:22:47.875Z,93.65
2022-12-11T10:23:47.859Z,93.33
2022-12-11T10:25:47.815Z,93.44
2022-12-11T10:26:47.834Z,93.23
2022-12-11T10:27:47.834Z,93.12
2022-12-11T10:28:47.781Z,93.12
2022-12-11T10:29:47.771Z,93.12
2022-12-11T10:30:47.932Z,92.80
2022-12-11T10:31:47.778Z,92.80
2022-12-11T10:32:47.749Z,92.91
2022-12-11T10:33:47.733Z,93.12
2022-12-11T10:34:47.738Z,93.12
2022-12-11T10:35:47.885Z,92.91
2022-12-11T10:36:47.750Z,93.01
2022-12-11T10:37:47.693Z,93.12
2022-12-11T10:38:47.678Z,93.12
2022-12-11T10:39:47.661Z,93.01
2022-12-11T10:40:47.667Z,93.23
2022-12-11T10:41:47.655Z,93.33
2022-12-11T10:42:47.696Z,93.33
2022-12-11T10:43:47.631Z,93.23
2022-12-11T10:44:47.627Z,93.12
2022-12-11T10:45:47.621Z,92.91
2022-12-11T10:46:47.698Z,92.91
2022-12-11T10:47:47.566Z,93.01
2022-12-11T10:48:47.582Z,93.23
2022-12-11T10:49:47.567Z,93.12
2022-12-11T10:50:47.565Z,93.23
2022-12-11T10:51:47.543Z,93.33
2022-12-11T10:52:47.578Z,93.33
2022-12-11T10:53:47.510Z,93.54
2022-12-11T10:54:47.510Z,93.65
2022-12-11T10:55:47.502Z,93.65
2022-12-11T10:56:47.478Z,93.65
2022-12-11T10:57:47.483Z,93.76
2022-12-11T10:58:47.511Z,93.54
2022-12-11T10:59:47.456Z,93.61
2022-12-11T11:00:47.450Z,93.61
2022-12-11T11:01:47.523Z,93.61
2022-12-11T11:02:47.458Z,93.82
2022-12-11T11:03:47.436Z,93.82
2022-12-11T11:04:47.398Z,93.29
2022-12-11T11:05:49.541Z,93.29
2022-12-11T11:06:47.410Z,93.51
2022-12-11T11:07:47.438Z,93.61
2022-12-11T11:08:47.356Z,93.29
2022-12-11T11:09:47.375Z,93.40
2022-12-11T11:10:47.341Z,93.51
2022-12-11T11:11:47.326Z,93.40
2022-12-11T11:12:47.316Z,93.51
2022-12-11T11:13:47.308Z,93.40
2022-12-11T11:14:47.311Z,93.35
2022-12-11T11:15:47.318Z,93.57
2022-12-11T11:16:47.272Z,93.57
2022-12-11T11:17:54.541Z,93.25
2022-12-11T11:18:47.259Z,93.14
2022-12-11T11:19:47.285Z,93.04
2022-12-11T11:20:47.241Z,93.35
2022-12-11T11:21:47.256Z,93.35
2022-12-11T11:22:47.214Z,93.57
2022-12-11T11:23:51.886Z,93.57
2022-12-11T11:24:47.205Z,93.35
2022-12-11T11:25:47.163Z,93.35
2022-12-11T11:27:12.372Z,93.57
2022-12-11T11:27:47.190Z,93.57
2022-12-11T11:28:47.148Z,93.46
2022-12-11T11:29:52.807Z,93.57
2022-12-11T11:30:47.272Z,93.46
2022-12-11T11:31:47.129Z,93.89
2022-12-11T11:32:47.108Z,93.78
2022-12-11T11:33:47.125Z,93.57
2022-12-11T11:34:47.097Z,93.14
2022-12-11T11:35:47.078Z,92.82
2022-12-11T11:36:47.117Z,93.04
2022-12-11T11:37:47.105Z,93.25
2022-12-11T11:38:47.045Z,93.14
2022-12-11T11:39:47.069Z,93.46
2022-12-11T11:40:47.017Z,93.35
2022-12-11T11:41:47.017Z,93.46
2022-12-11T11:42:47.013Z,93.78
2022-12-11T11:43:47.016Z,93.68
2022-12-11T11:44:47.006Z,93.57
2022-12-11T11:45:47.006Z,93.46
2022-12-11T11:46:47.061Z,93.74
2022-12-11T11:47:46.951Z,93.78
2022-12-11T11:48:46.981Z,93.52
2022-12-11T11:49:46.932Z,93.78
2022-12-11T11:50:46.906Z,93.85
2022-12-11T11:51:46.914Z,93.63
2022-12-11T11:52:46.901Z,93.74
2022-12-11T11:53:46.914Z,93.63
2022-12-11T11:54:46.875Z,93.85
2022-12-11T11:55:46.919Z,94.38
2022-12-11T11:56:46.868Z,94.38
2022-12-11T11:57:46.873Z,94.38
2022-12-11T11:58:46.830Z,94.48
2022-12-11T11:59:46.836Z,94.59
2022-12-11T12:00:47.090Z,94.70
2022-12-11T12:01:46.806Z,94.59
2022-12-11T12:02:46.851Z,94.48
2022-12-11T12:03:46.812Z,94.81
2022-12-11T12:04:46.777Z,94.81
2022-12-11T12:05:46.784Z,94.70
2022-12-11T12:06:50.774Z,94.59
2022-12-11T12:07:46.783Z,94.91
2022-12-11T12:08:46.725Z,94.91
2022-12-11T12:09:46.751Z,94.70
2022-12-11T12:10:47.188Z,94.59
2022-12-11T12:11:46.730Z,94.59
2022-12-11T12:12:46.687Z,94.81
2022-12-11T12:13:50.471Z,94.91
2022-12-11T12:14:53.962Z,95.02
2022-12-11T12:15:46.675Z,94.91
2022-12-11T12:16:54.076Z,94.81
2022-12-11T12:17:50.589Z,94.70
2022-12-11T12:18:46.715Z,94.59
2022-12-11T12:19:46.600Z,94.59
2022-12-11T12:20:46.613Z,94.70
2022-12-11T12:21:46.687Z,94.81
2022-12-11T12:22:46.580Z,94.59
2022-12-11T12:23:46.574Z,94.70
2022-12-11T12:24:46.599Z,94.81
2022-12-11T12:25:46.535Z,94.70
2022-12-11T12:26:46.511Z,94.70
2022-12-11T12:27:53.839Z,94.70
2022-12-11T12:28:46.526Z,94.48
2022-12-11T12:29:46.513Z,94.27
2022-12-11T12:30:46.542Z,94.59
2022-12-11T12:31:46.518Z,94.70
2022-12-11T12:32:46.480Z,94.81
2022-12-11T12:33:46.462Z,94.48
2022-12-11T12:34:46.448Z,94.70
2022-12-11T12:35:46.442Z,94.70
2022-12-11T12:36:46.446Z,94.81
2022-12-11T12:37:46.411Z,94.81
2022-12-11T12:38:46.402Z,94.76
2022-12-11T12:39:46.385Z,94.81
2022-12-11T12:40:46.967Z,94.27
2022-12-11T12:41:46.385Z,94.38
2022-12-11T12:42:46.359Z,94.70
2022-12-11T12:43:46.396Z,94.81
2022-12-11T12:44:46.365Z,94.81
2022-12-11T12:45:46.388Z,94.76
2022-12-11T12:46:46.315Z,94.59
2022-12-11T12:47:51.777Z,94.70
2022-12-11T12:48:46.498Z,94.81
2022-12-11T12:49:46.306Z,94.98
2022-12-11T12:50:46.358Z,94.91
2022-12-11T12:51:46.674Z,95.23
2022-12-11T12:52:46.250Z,95.19
2022-12-11T12:53:46.305Z,95.19